sensor_id;sensor_type;location;lat;lon;timestamp;P1;durP1;ratioP1;P2;durP2;ratioP2
22007;SDS011;11168;56.976;24.168;2023-04-06T00:00:33;13.60;;;5.43;;
22007;SDS011;11168;56.976;24.168;2023-04-06T00:03:00;10.13;;;5.30;;
22007;SDS011;11168;56.976;24.168;2023-04-06T00:05:28;7.55;;;5.40;;
22007;SDS011;11168;56.976;24.168;2023-04-06T00:07:59;8.85;;;5.63;;
22007;SDS011;11168;56.976;24.168;2023-04-06T00:10:27;10.27;;;5.90;;
22007;SDS011;11168;56.976;24.168;2023-04-06T00:12:54;10.52;;;5.63;;
22007;SDS011;11168;56.976;24.168;2023-04-06T00:15:23;8.98;;;5.90;;
22007;SDS011;11168;56.976;24.168;2023-04-06T00:17:51;8.45;;;5.60;;
22007;SDS011;11168;56.976;24.168;2023-04-06T00:20:18;10.32;;;6.32;;
22007;SDS011;11168;56.976;24.168;2023-04-06T00:22:45;10.32;;;5.82;;
22007;SDS011;11168;56.976;24.168;2023-04-06T00:25:13;9.00;;;5.68;;
22007;SDS011;11168;56.976;24.168;2023-04-06T00:27:41;8.18;;;5.28;;
22007;SDS011;11168;56.976;24.168;2023-04-06T00:30:09;8.63;;;5.95;;
22007;SDS011;11168;56.976;24.168;2023-04-06T00:32:36;8.75;;;5.45;;
22007;SDS011;11168;56.976;24.168;2023-04-06T00:35:04;7.57;;;5.57;;
22007;SDS011;11168;56.976;24.168;2023-04-06T00:37:32;10.35;;;6.13;;
22007;SDS011;11168;56.976;24.168;2023-04-06T00:39:59;9.80;;;6.07;;
22007;SDS011;11168;56.976;24.168;2023-04-06T00:42:27;10.15;;;4.85;;
22007;SDS011;11168;56.976;24.168;2023-04-06T00:44:58;6.78;;;4.97;;
22007;SDS011;11168;56.976;24.168;2023-04-06T00:47:26;8.13;;;5.70;;
22007;SDS011;11168;56.976;24.168;2023-04-06T00:49:53;7.57;;;5.47;;
22007;SDS011;11168;56.976;24.168;2023-04-06T00:52:21;6.65;;;4.82;;
22007;SDS011;11168;56.976;24.168;2023-04-06T00:54:49;8.00;;;5.30;;
22007;SDS011;11168;56.976;24.168;2023-04-06T00:57:17;7.75;;;5.13;;
22007;SDS011;11168;56.976;24.168;2023-04-06T00:59:45;8.10;;;5.28;;
22007;SDS011;11168;56.976;24.168;2023-04-06T01:02:13;8.13;;;5.05;;
22007;SDS011;11168;56.976;24.168;2023-04-06T01:04:41;9.63;;;5.10;;
22007;SDS011;11168;56.976;24.168;2023-04-06T01:07:08;7.80;;;4.75;;
22007;SDS011;11168;56.976;24.168;2023-04-06T01:09:36;5.95;;;4.68;;
22007;SDS011;11168;56.976;24.168;2023-04-06T01:12:03;6.32;;;4.53;;
22007;SDS011;11168;56.976;24.168;2023-04-06T01:14:31;6.53;;;4.72;;
22007;SDS011;11168;56.976;24.168;2023-04-06T01:16:58;7.38;;;4.90;;
22007;SDS011;11168;56.976;24.168;2023-04-06T01:19:27;8.48;;;4.82;;
22007;SDS011;11168;56.976;24.168;2023-04-06T01:21:54;8.73;;;5.07;;
22007;SDS011;11168;56.976;24.168;2023-04-06T01:24:22;8.73;;;5.00;;
22007;SDS011;11168;56.976;24.168;2023-04-06T01:26:49;7.88;;;4.80;;
22007;SDS011;11168;56.976;24.168;2023-04-06T01:29:17;5.85;;;4.38;;
22007;SDS011;11168;56.976;24.168;2023-04-06T01:31:44;7.22;;;4.72;;
22007;SDS011;11168;56.976;24.168;2023-04-06T01:34:12;8.95;;;4.60;;
22007;SDS011;11168;56.976;24.168;2023-04-06T01:36:39;5.22;;;4.07;;
22007;SDS011;11168;56.976;24.168;2023-04-06T01:39:06;6.15;;;4.20;;
22007;SDS011;11168;56.976;24.168;2023-04-06T01:41:34;6.00;;;3.90;;
22007;SDS011;11168;56.976;24.168;2023-04-06T01:44:02;5.32;;;4.10;;
22007;SDS011;11168;56.976;24.168;2023-04-06T01:46:29;6.25;;;3.90;;
22007;SDS011;11168;56.976;24.168;2023-04-06T01:48:57;4.57;;;3.65;;
22007;SDS011;11168;56.976;24.168;2023-04-06T01:51:24;5.47;;;3.80;;
22007;SDS011;11168;56.976;24.168;2023-04-06T01:53:52;5.80;;;3.50;;
22007;SDS011;11168;56.976;24.168;2023-04-06T01:56:19;7.70;;;3.30;;
22007;SDS011;11168;56.976;24.168;2023-04-06T01:58:47;3.92;;;3.17;;
22007;SDS011;11168;56.976;24.168;2023-04-06T02:01:14;4.28;;;3.15;;
22007;SDS011;11168;56.976;24.168;2023-04-06T02:03:42;4.97;;;3.28;;
22007;SDS011;11168;56.976;24.168;2023-04-06T02:06:09;3.85;;;3.08;;
22007;SDS011;11168;56.976;24.168;2023-04-06T02:08:36;4.30;;;2.67;;
22007;SDS011;11168;56.976;24.168;2023-04-06T02:11:04;3.25;;;2.42;;
22007;SDS011;11168;56.976;24.168;2023-04-06T02:13:31;4.97;;;2.30;;
22007;SDS011;11168;56.976;24.168;2023-04-06T02:15:58;3.15;;;2.30;;
22007;SDS011;11168;56.976;24.168;2023-04-06T02:18:26;3.83;;;2.30;;
22007;SDS011;11168;56.976;24.168;2023-04-06T02:20:54;2.50;;;2.20;;
22007;SDS011;11168;56.976;24.168;2023-04-06T02:23:22;3.05;;;2.58;;
22007;SDS011;11168;56.976;24.168;2023-04-06T02:25:49;2.45;;;2.20;;
22007;SDS011;11168;56.976;24.168;2023-04-06T02:28:16;2.97;;;2.00;;
22007;SDS011;11168;56.976;24.168;2023-04-06T02:30:44;3.20;;;2.30;;
22007;SDS011;11168;56.976;24.168;2023-04-06T02:33:12;2.92;;;2.40;;
22007;SDS011;11168;56.976;24.168;2023-04-06T02:35:40;2.72;;;2.35;;
22007;SDS011;11168;56.976;24.168;2023-04-06T02:38:07;3.70;;;2.38;;
22007;SDS011;11168;56.976;24.168;2023-04-06T02:40:34;11.52;;;2.75;;
22007;SDS011;11168;56.976;24.168;2023-04-06T02:43:02;10.85;;;3.08;;
22007;SDS011;11168;56.976;24.168;2023-04-06T02:45:29;3.47;;;2.50;;
22007;SDS011;11168;56.976;24.168;2023-04-06T02:47:56;7.38;;;2.40;;
22007;SDS011;11168;56.976;24.168;2023-04-06T02:50:24;5.90;;;2.38;;
22007;SDS011;11168;56.976;24.168;2023-04-06T02:52:52;4.68;;;3.28;;
22007;SDS011;11168;56.976;24.168;2023-04-06T02:55:19;9.18;;;6.88;;
22007;SDS011;11168;56.976;24.168;2023-04-06T02:57:47;10.57;;;8.73;;
22007;SDS011;11168;56.976;24.168;2023-04-06T03:00:15;12.43;;;8.35;;
22007;SDS011;11168;56.976;24.168;2023-04-06T03:02:42;10.75;;;7.57;;
22007;SDS011;11168;56.976;24.168;2023-04-06T03:05:10;27.95;;;16.20;;
22007;SDS011;11168;56.976;24.168;2023-04-06T03:07:37;25.42;;;10.98;;
22007;SDS011;11168;56.976;24.168;2023-04-06T03:10:04;7.13;;;4.47;;
22007;SDS011;11168;56.976;24.168;2023-04-06T03:12:32;6.57;;;3.35;;
22007;SDS011;11168;56.976;24.168;2023-04-06T03:14:59;6.15;;;2.97;;
22007;SDS011;11168;56.976;24.168;2023-04-06T03:17:27;5.55;;;2.72;;
22007;SDS011;11168;56.976;24.168;2023-04-06T03:19:54;4.50;;;2.58;;
22007;SDS011;11168;56.976;24.168;2023-04-06T03:22:21;4.32;;;2.45;;
22007;SDS011;11168;56.976;24.168;2023-04-06T03:24:49;3.17;;;2.72;;
22007;SDS011;11168;56.976;24.168;2023-04-06T03:27:16;3.80;;;2.80;;
22007;SDS011;11168;56.976;24.168;2023-04-06T03:29:43;4.97;;;2.40;;
22007;SDS011;11168;56.976;24.168;2023-04-06T03:32:11;3.05;;;2.30;;
22007;SDS011;11168;56.976;24.168;2023-04-06T03:34:38;2.10;;;1.90;;
22007;SDS011;11168;56.976;24.168;2023-04-06T03:37:06;4.50;;;2.40;;
22007;SDS011;11168;56.976;24.168;2023-04-06T03:39:36;4.65;;;2.47;;
22007;SDS011;11168;56.976;24.168;2023-04-06T03:42:03;4.47;;;2.40;;
22007;SDS011;11168;56.976;24.168;2023-04-06T03:44:31;4.18;;;2.35;;
22007;SDS011;11168;56.976;24.168;2023-04-06T03:46:58;3.35;;;2.13;;
22007;SDS011;11168;56.976;24.168;2023-04-06T03:49:26;3.45;;;2.38;;
22007;SDS011;11168;56.976;24.168;2023-04-06T03:51:54;5.57;;;3.60;;
22007;SDS011;11168;56.976;24.168;2023-04-06T03:54:21;5.80;;;4.32;;
22007;SDS011;11168;56.976;24.168;2023-04-06T03:56:48;5.32;;;3.97;;
22007;SDS011;11168;56.976;24.168;2023-04-06T03:59:16;4.05;;;3.35;;
22007;SDS011;11168;56.976;24.168;2023-04-06T04:01:43;3.67;;;3.25;;
22007;SDS011;11168;56.976;24.168;2023-04-06T04:04:11;4.60;;;3.70;;
22007;SDS011;11168;56.976;24.168;2023-04-06T04:06:38;4.30;;;3.33;;
22007;SDS011;11168;56.976;24.168;2023-04-06T04:09:05;5.57;;;3.40;;
22007;SDS011;11168;56.976;24.168;2023-04-06T04:11:33;6.25;;;3.28;;
22007;SDS011;11168;56.976;24.168;2023-04-06T04:14:00;6.93;;;3.70;;
22007;SDS011;11168;56.976;24.168;2023-04-06T04:16:28;5.32;;;3.50;;
22007;SDS011;11168;56.976;24.168;2023-04-06T04:18:55;4.97;;;3.58;;
22007;SDS011;11168;56.976;24.168;2023-04-06T04:21:24;5.15;;;3.47;;
22007;SDS011;11168;56.976;24.168;2023-04-06T04:23:54;7.32;;;4.10;;
22007;SDS011;11168;56.976;24.168;2023-04-06T04:26:22;6.25;;;4.10;;
22007;SDS011;11168;56.976;24.168;2023-04-06T04:28:49;8.75;;;4.25;;
22007;SDS011;11168;56.976;24.168;2023-04-06T04:31:16;9.82;;;5.10;;
22007;SDS011;11168;56.976;24.168;2023-04-06T04:33:44;7.75;;;5.03;;
22007;SDS011;11168;56.976;24.168;2023-04-06T04:36:11;6.93;;;4.97;;
22007;SDS011;11168;56.976;24.168;2023-04-06T04:38:39;10.32;;;5.55;;
22007;SDS011;11168;56.976;24.168;2023-04-06T04:41:06;10.20;;;5.43;;
22007;SDS011;11168;56.976;24.168;2023-04-06T04:43:33;8.38;;;5.47;;
22007;SDS011;11168;56.976;24.168;2023-04-06T04:46:01;9.88;;;5.85;;
22007;SDS011;11168;56.976;24.168;2023-04-06T04:48:28;9.57;;;5.80;;
22007;SDS011;11168;56.976;24.168;2023-04-06T04:50:55;8.10;;;5.72;;
22007;SDS011;11168;56.976;24.168;2023-04-06T04:53:23;11.80;;;5.88;;
22007;SDS011;11168;56.976;24.168;2023-04-06T04:55:50;10.15;;;5.13;;
22007;SDS011;11168;56.976;24.168;2023-04-06T04:58:18;9.40;;;5.35;;
22007;SDS011;11168;56.976;24.168;2023-04-06T05:00:46;8.32;;;5.78;;
22007;SDS011;11168;56.976;24.168;2023-04-06T05:03:18;9.38;;;5.68;;
22007;SDS011;11168;56.976;24.168;2023-04-06T05:05:47;11.85;;;6.00;;
22007;SDS011;11168;56.976;24.168;2023-04-06T05:08:14;9.75;;;5.03;;
22007;SDS011;11168;56.976;24.168;2023-04-06T05:10:42;8.63;;;4.68;;
22007;SDS011;11168;56.976;24.168;2023-04-06T05:13:10;9.55;;;4.80;;
22007;SDS011;11168;56.976;24.168;2023-04-06T05:15:38;7.22;;;4.97;;
22007;SDS011;11168;56.976;24.168;2023-04-06T05:18:07;7.90;;;4.60;;
22007;SDS011;11168;56.976;24.168;2023-04-06T05:20:35;6.22;;;4.38;;
22007;SDS011;11168;56.976;24.168;2023-04-06T05:23:02;9.23;;;4.68;;
22007;SDS011;11168;56.976;24.168;2023-04-06T05:25:30;8.60;;;4.22;;
22007;SDS011;11168;56.976;24.168;2023-04-06T05:27:57;7.03;;;3.85;;
22007;SDS011;11168;56.976;24.168;2023-04-06T05:30:25;8.25;;;4.82;;
22007;SDS011;11168;56.976;24.168;2023-04-06T05:32:52;10.65;;;5.43;;
22007;SDS011;11168;56.976;24.168;2023-04-06T05:35:19;11.15;;;5.20;;
22007;SDS011;11168;56.976;24.168;2023-04-06T05:37:47;10.02;;;5.20;;
22007;SDS011;11168;56.976;24.168;2023-04-06T05:40:14;10.43;;;5.50;;
22007;SDS011;11168;56.976;24.168;2023-04-06T05:42:42;10.82;;;5.15;;
22007;SDS011;11168;56.976;24.168;2023-04-06T05:45:09;9.90;;;5.55;;
22007;SDS011;11168;56.976;24.168;2023-04-06T05:47:37;10.25;;;5.45;;
22007;SDS011;11168;56.976;24.168;2023-04-06T05:50:04;9.27;;;4.95;;
22007;SDS011;11168;56.976;24.168;2023-04-06T05:52:34;11.27;;;5.63;;
22007;SDS011;11168;56.976;24.168;2023-04-06T05:55:02;13.25;;;6.05;;
22007;SDS011;11168;56.976;24.168;2023-04-06T05:57:29;13.98;;;6.32;;
22007;SDS011;11168;56.976;24.168;2023-04-06T05:59:57;12.07;;;5.90;;
22007;SDS011;11168;56.976;24.168;2023-04-06T06:02:24;11.55;;;6.43;;
22007;SDS011;11168;56.976;24.168;2023-04-06T06:04:52;9.88;;;5.40;;
22007;SDS011;11168;56.976;24.168;2023-04-06T06:07:19;8.32;;;4.75;;
22007;SDS011;11168;56.976;24.168;2023-04-06T06:09:47;11.27;;;5.65;;
22007;SDS011;11168;56.976;24.168;2023-04-06T06:12:14;13.30;;;5.90;;
22007;SDS011;11168;56.976;24.168;2023-04-06T06:14:41;11.70;;;5.95;;
22007;SDS011;11168;56.976;24.168;2023-04-06T06:17:09;8.52;;;5.03;;
22007;SDS011;11168;56.976;24.168;2023-04-06T06:19:36;11.40;;;5.60;;
22007;SDS011;11168;56.976;24.168;2023-04-06T06:22:04;13.40;;;6.93;;
22007;SDS011;11168;56.976;24.168;2023-04-06T06:24:32;11.27;;;5.85;;
22007;SDS011;11168;56.976;24.168;2023-04-06T06:26:59;13.18;;;6.40;;
22007;SDS011;11168;56.976;24.168;2023-04-06T06:29:27;11.45;;;6.47;;
22007;SDS011;11168;56.976;24.168;2023-04-06T06:31:54;14.00;;;7.78;;
22007;SDS011;11168;56.976;24.168;2023-04-06T06:34:22;14.52;;;7.35;;
22007;SDS011;11168;56.976;24.168;2023-04-06T06:36:49;18.88;;;8.30;;
22007;SDS011;11168;56.976;24.168;2023-04-06T06:39:18;12.43;;;6.15;;
22007;SDS011;11168;56.976;24.168;2023-04-06T06:41:45;12.25;;;6.85;;
22007;SDS011;11168;56.976;24.168;2023-04-06T06:44:12;11.90;;;6.05;;
22007;SDS011;11168;56.976;24.168;2023-04-06T06:46:40;10.35;;;6.93;;
22007;SDS011;11168;56.976;24.168;2023-04-06T06:49:07;11.30;;;7.07;;
22007;SDS011;11168;56.976;24.168;2023-04-06T06:51:34;11.35;;;6.93;;
22007;SDS011;11168;56.976;24.168;2023-04-06T06:54:02;12.55;;;7.45;;
22007;SDS011;11168;56.976;24.168;2023-04-06T06:56:31;9.23;;;5.55;;
22007;SDS011;11168;56.976;24.168;2023-04-06T06:58:58;12.23;;;6.40;;
22007;SDS011;11168;56.976;24.168;2023-04-06T07:01:26;15.35;;;7.30;;
22007;SDS011;11168;56.976;24.168;2023-04-06T07:03:53;17.52;;;7.82;;
22007;SDS011;11168;56.976;24.168;2023-04-06T07:06:21;15.15;;;6.93;;
22007;SDS011;11168;56.976;24.168;2023-04-06T07:08:48;11.27;;;6.72;;
22007;SDS011;11168;56.976;24.168;2023-04-06T07:11:15;15.68;;;6.57;;
22007;SDS011;11168;56.976;24.168;2023-04-06T07:13:43;9.68;;;6.22;;
22007;SDS011;11168;56.976;24.168;2023-04-06T07:16:10;11.88;;;7.07;;
22007;SDS011;11168;56.976;24.168;2023-04-06T07:18:37;10.50;;;6.20;;
22007;SDS011;11168;56.976;24.168;2023-04-06T07:21:05;11.52;;;6.15;;
22007;SDS011;11168;56.976;24.168;2023-04-06T07:23:32;10.00;;;5.65;;
22007;SDS011;11168;56.976;24.168;2023-04-06T07:25:59;8.23;;;5.03;;
22007;SDS011;11168;56.976;24.168;2023-04-06T07:28:27;7.43;;;4.97;;
22007;SDS011;11168;56.976;24.168;2023-04-06T07:30:54;7.72;;;4.53;;
22007;SDS011;11168;56.976;24.168;2023-04-06T07:33:22;11.18;;;5.68;;
22007;SDS011;11168;56.976;24.168;2023-04-06T07:35:49;8.45;;;4.55;;
22007;SDS011;11168;56.976;24.168;2023-04-06T07:38:17;5.90;;;4.15;;
22007;SDS011;11168;56.976;24.168;2023-04-06T07:40:45;6.45;;;4.72;;
22007;SDS011;11168;56.976;24.168;2023-04-06T07:43:12;7.07;;;4.70;;
22007;SDS011;11168;56.976;24.168;2023-04-06T07:45:39;7.60;;;4.55;;
22007;SDS011;11168;56.976;24.168;2023-04-06T07:48:07;6.50;;;4.43;;
22007;SDS011;11168;56.976;24.168;2023-04-06T07:50:34;6.55;;;4.30;;
22007;SDS011;11168;56.976;24.168;2023-04-06T07:53:02;8.73;;;4.97;;
22007;SDS011;11168;56.976;24.168;2023-04-06T07:55:29;7.07;;;4.90;;
22007;SDS011;11168;56.976;24.168;2023-04-06T07:57:56;8.05;;;5.35;;
22007;SDS011;11168;56.976;24.168;2023-04-06T08:00:24;6.95;;;5.07;;
22007;SDS011;11168;56.976;24.168;2023-04-06T08:02:51;7.95;;;5.00;;
22007;SDS011;11168;56.976;24.168;2023-04-06T08:05:19;11.98;;;5.90;;
22007;SDS011;11168;56.976;24.168;2023-04-06T08:07:46;9.20;;;5.88;;
22007;SDS011;11168;56.976;24.168;2023-04-06T08:10:14;8.20;;;5.68;;
22007;SDS011;11168;56.976;24.168;2023-04-06T08:12:41;7.90;;;5.82;;
22007;SDS011;11168;56.976;24.168;2023-04-06T08:15:08;7.93;;;5.30;;
22007;SDS011;11168;56.976;24.168;2023-04-06T08:17:36;8.85;;;5.90;;
22007;SDS011;11168;56.976;24.168;2023-04-06T08:20:03;7.53;;;5.40;;
22007;SDS011;11168;56.976;24.168;2023-04-06T08:22:31;8.70;;;6.32;;
22007;SDS011;11168;56.976;24.168;2023-04-06T08:24:58;8.90;;;6.50;;
22007;SDS011;11168;56.976;24.168;2023-04-06T08:27:25;11.13;;;7.03;;
22007;SDS011;11168;56.976;24.168;2023-04-06T08:29:53;10.48;;;7.20;;
22007;SDS011;11168;56.976;24.168;2023-04-06T08:32:20;10.02;;;6.50;;
22007;SDS011;11168;56.976;24.168;2023-04-06T08:34:47;11.35;;;7.20;;
22007;SDS011;11168;56.976;24.168;2023-04-06T08:37:14;11.98;;;6.85;;
22007;SDS011;11168;56.976;24.168;2023-04-06T08:39:42;12.57;;;6.70;;
22007;SDS011;11168;56.976;24.168;2023-04-06T08:44:40;14.07;;;7.22;;
22007;SDS011;11168;56.976;24.168;2023-04-06T08:47:08;8.65;;;5.78;;
22007;SDS011;11168;56.976;24.168;2023-04-06T08:49:37;10.80;;;6.90;;
22007;SDS011;11168;56.976;24.168;2023-04-06T08:52:07;13.40;;;6.90;;
22007;SDS011;11168;56.976;24.168;2023-04-06T08:54:35;10.75;;;6.70;;
22007;SDS011;11168;56.976;24.168;2023-04-06T08:57:02;9.77;;;6.75;;
22007;SDS011;11168;56.976;24.168;2023-04-06T08:59:30;9.82;;;6.97;;
22007;SDS011;11168;56.976;24.168;2023-04-06T09:01:58;8.68;;;6.18;;
22007;SDS011;11168;56.976;24.168;2023-04-06T09:04:26;12.43;;;7.65;;
22007;SDS011;11168;56.976;24.168;2023-04-06T09:06:53;11.82;;;7.70;;
22007;SDS011;11168;56.976;24.168;2023-04-06T09:09:21;11.05;;;7.28;;
22007;SDS011;11168;56.976;24.168;2023-04-06T09:11:51;10.38;;;7.30;;
22007;SDS011;11168;56.976;24.168;2023-04-06T09:14:35;12.20;;;7.40;;
22007;SDS011;11168;56.976;24.168;2023-04-06T09:17:03;13.55;;;8.77;;
22007;SDS011;11168;56.976;24.168;2023-04-06T09:19:31;11.98;;;8.02;;
22007;SDS011;11168;56.976;24.168;2023-04-06T09:22:03;11.13;;;7.10;;
22007;SDS011;11168;56.976;24.168;2023-04-06T09:27:34;12.10;;;7.95;;
22007;SDS011;11168;56.976;24.168;2023-04-06T09:30:03;13.45;;;7.63;;
22007;SDS011;11168;56.976;24.168;2023-04-06T09:32:31;13.07;;;7.90;;
22007;SDS011;11168;56.976;24.168;2023-04-06T09:35:06;15.68;;;8.55;;
22007;SDS011;11168;56.976;24.168;2023-04-06T09:37:33;13.70;;;8.85;;
22007;SDS011;11168;56.976;24.168;2023-04-06T09:40:02;16.13;;;8.43;;
22007;SDS011;11168;56.976;24.168;2023-04-06T09:42:29;12.38;;;7.60;;
22007;SDS011;11168;56.976;24.168;2023-04-06T09:44:57;12.50;;;8.63;;
22007;SDS011;11168;56.976;24.168;2023-04-06T09:47:24;12.45;;;8.93;;
22007;SDS011;11168;56.976;24.168;2023-04-06T09:49:58;13.63;;;9.30;;
22007;SDS011;11168;56.976;24.168;2023-04-06T09:52:27;17.17;;;9.57;;
22007;SDS011;11168;56.976;24.168;2023-04-06T09:54:59;13.48;;;9.60;;
22007;SDS011;11168;56.976;24.168;2023-04-06T09:57:45;16.73;;;11.65;;
22007;SDS011;11168;56.976;24.168;2023-04-06T10:00:17;16.15;;;10.02;;
22007;SDS011;11168;56.976;24.168;2023-04-06T10:07:47;13.98;;;9.35;;
22007;SDS011;11168;56.976;24.168;2023-04-06T10:10:27;15.48;;;9.80;;
22007;SDS011;11168;56.976;24.168;2023-04-06T10:12:55;14.80;;;9.75;;
22007;SDS011;11168;56.976;24.168;2023-04-06T10:15:23;14.07;;;9.82;;
22007;SDS011;11168;56.976;24.168;2023-04-06T10:17:50;15.95;;;10.63;;
22007;SDS011;11168;56.976;24.168;2023-04-06T10:20:23;16.52;;;10.70;;
22007;SDS011;11168;56.976;24.168;2023-04-06T10:23:04;16.48;;;10.65;;
22007;SDS011;11168;56.976;24.168;2023-04-06T10:25:34;14.73;;;10.02;;
22007;SDS011;11168;56.976;24.168;2023-04-06T10:28:02;16.27;;;10.90;;
22007;SDS011;11168;56.976;24.168;2023-04-06T10:30:32;19.85;;;11.38;;
22007;SDS011;11168;56.976;24.168;2023-04-06T10:33:12;17.98;;;10.85;;
22007;SDS011;11168;56.976;24.168;2023-04-06T10:35:40;16.75;;;11.00;;
22007;SDS011;11168;56.976;24.168;2023-04-06T10:38:07;15.35;;;11.23;;
22007;SDS011;11168;56.976;24.168;2023-04-06T10:40:36;16.80;;;11.55;;
22007;SDS011;11168;56.976;24.168;2023-04-06T10:43:10;17.02;;;11.68;;
22007;SDS011;11168;56.976;24.168;2023-04-06T10:45:39;16.45;;;11.75;;
22007;SDS011;11168;56.976;24.168;2023-04-06T10:48:16;16.92;;;11.20;;
22007;SDS011;11168;56.976;24.168;2023-04-06T10:50:44;22.55;;;11.50;;
22007;SDS011;11168;56.976;24.168;2023-04-06T10:53:19;51.60;;;22.20;;
22007;SDS011;11168;56.976;24.168;2023-04-06T10:55:47;24.85;;;12.00;;
22007;SDS011;11168;56.976;24.168;2023-04-06T10:58:16;16.08;;;9.95;;
22007;SDS011;11168;56.976;24.168;2023-04-06T11:00:47;15.85;;;9.82;;
22007;SDS011;11168;56.976;24.168;2023-04-06T11:03:17;19.42;;;10.50;;
22007;SDS011;11168;56.976;24.168;2023-04-06T11:05:45;18.23;;;10.00;;
22007;SDS011;11168;56.976;24.168;2023-04-06T11:08:26;14.43;;;8.68;;
22007;SDS011;11168;56.976;24.168;2023-04-06T11:13:56;12.68;;;9.00;;
22007;SDS011;11168;56.976;24.168;2023-04-06T11:18:52;12.52;;;8.60;;
22007;SDS011;11168;56.976;24.168;2023-04-06T11:21:20;11.80;;;8.70;;
22007;SDS011;11168;56.976;24.168;2023-04-06T11:23:47;14.60;;;9.07;;
22007;SDS011;11168;56.976;24.168;2023-04-06T11:26:15;13.23;;;9.27;;
22007;SDS011;11168;56.976;24.168;2023-04-06T11:28:43;13.02;;;9.35;;
22007;SDS011;11168;56.976;24.168;2023-04-06T11:31:11;14.40;;;9.93;;
22007;SDS011;11168;56.976;24.168;2023-04-06T11:33:40;16.33;;;9.45;;
22007;SDS011;11168;56.976;24.168;2023-04-06T11:36:08;22.80;;;9.45;;
22007;SDS011;11168;56.976;24.168;2023-04-06T11:38:38;23.63;;;10.40;;
22007;SDS011;11168;56.976;24.168;2023-04-06T11:41:06;14.52;;;9.38;;
22007;SDS011;11168;56.976;24.168;2023-04-06T11:43:33;16.65;;;9.05;;
22007;SDS011;11168;56.976;24.168;2023-04-06T11:46:01;18.55;;;9.30;;
22007;SDS011;11168;56.976;24.168;2023-04-06T11:48:29;16.45;;;10.05;;
22007;SDS011;11168;56.976;24.168;2023-04-06T11:50:57;19.25;;;9.75;;
22007;SDS011;11168;56.976;24.168;2023-04-06T11:53:30;15.25;;;9.00;;
22007;SDS011;11168;56.976;24.168;2023-04-06T11:55:59;13.27;;;8.68;;
22007;SDS011;11168;56.976;24.168;2023-04-06T11:58:26;11.60;;;9.05;;
22007;SDS011;11168;56.976;24.168;2023-04-06T12:01:02;13.13;;;9.25;;
22007;SDS011;11168;56.976;24.168;2023-04-06T12:03:31;16.75;;;10.23;;
22007;SDS011;11168;56.976;24.168;2023-04-06T12:05:58;16.30;;;10.15;;
22007;SDS011;11168;56.976;24.168;2023-04-06T12:08:26;13.10;;;9.85;;
22007;SDS011;11168;56.976;24.168;2023-04-06T12:10:54;17.38;;;10.18;;
22007;SDS011;11168;56.976;24.168;2023-04-06T12:13:21;13.10;;;9.65;;
22007;SDS011;11168;56.976;24.168;2023-04-06T12:15:49;12.90;;;10.05;;
22007;SDS011;11168;56.976;24.168;2023-04-06T12:18:16;18.83;;;10.38;;
22007;SDS011;11168;56.976;24.168;2023-04-06T12:20:47;11.50;;;9.05;;
22007;SDS011;11168;56.976;24.168;2023-04-06T12:23:16;14.90;;;9.27;;
22007;SDS011;11168;56.976;24.168;2023-04-06T12:25:53;13.90;;;9.38;;
22007;SDS011;11168;56.976;24.168;2023-04-06T12:28:27;14.38;;;9.30;;
22007;SDS011;11168;56.976;24.168;2023-04-06T12:30:54;13.40;;;9.73;;
22007;SDS011;11168;56.976;24.168;2023-04-06T12:33:26;17.30;;;10.18;;
22007;SDS011;11168;56.976;24.168;2023-04-06T12:35:57;17.25;;;10.18;;
22007;SDS011;11168;56.976;24.168;2023-04-06T12:38:25;14.35;;;10.13;;
22007;SDS011;11168;56.976;24.168;2023-04-06T12:40:53;13.10;;;10.10;;
22007;SDS011;11168;56.976;24.168;2023-04-06T12:43:20;14.38;;;10.15;;
22007;SDS011;11168;56.976;24.168;2023-04-06T12:45:49;16.42;;;10.85;;
22007;SDS011;11168;56.976;24.168;2023-04-06T12:48:17;14.45;;;9.73;;
22007;SDS011;11168;56.976;24.168;2023-04-06T12:50:44;15.45;;;10.10;;
22007;SDS011;11168;56.976;24.168;2023-04-06T12:53:12;16.73;;;11.07;;
22007;SDS011;11168;56.976;24.168;2023-04-06T12:55:42;20.60;;;11.93;;
22007;SDS011;11168;56.976;24.168;2023-04-06T12:58:10;16.02;;;11.77;;
22007;SDS011;11168;56.976;24.168;2023-04-06T13:00:37;15.88;;;10.68;;
22007;SDS011;11168;56.976;24.168;2023-04-06T13:03:11;17.20;;;11.52;;
22007;SDS011;11168;56.976;24.168;2023-04-06T13:06:12;19.20;;;12.20;;
22007;SDS011;11168;56.976;24.168;2023-04-06T13:08:40;19.80;;;12.68;;
22007;SDS011;11168;56.976;24.168;2023-04-06T13:11:08;16.85;;;12.05;;
22007;SDS011;11168;56.976;24.168;2023-04-06T13:13:36;18.45;;;13.88;;
22007;SDS011;11168;56.976;24.168;2023-04-06T13:16:05;21.45;;;14.38;;
22007;SDS011;11168;56.976;24.168;2023-04-06T13:18:33;20.13;;;13.68;;
22007;SDS011;11168;56.976;24.168;2023-04-06T13:21:01;19.15;;;14.30;;
22007;SDS011;11168;56.976;24.168;2023-04-06T13:23:28;21.52;;;15.20;;
22007;SDS011;11168;56.976;24.168;2023-04-06T13:28:29;22.05;;;14.38;;
22007;SDS011;11168;56.976;24.168;2023-04-06T13:31:00;23.45;;;14.73;;
22007;SDS011;11168;56.976;24.168;2023-04-06T13:33:28;39.47;;;25.75;;
22007;SDS011;11168;56.976;24.168;2023-04-06T13:35:56;61.20;;;38.53;;
22007;SDS011;11168;56.976;24.168;2023-04-06T13:38:23;26.65;;;17.90;;
22007;SDS011;11168;56.976;24.168;2023-04-06T13:40:51;19.70;;;14.50;;
22007;SDS011;11168;56.976;24.168;2023-04-06T13:43:18;25.00;;;15.57;;
22007;SDS011;11168;56.976;24.168;2023-04-06T13:45:50;22.70;;;15.88;;
22007;SDS011;11168;56.976;24.168;2023-04-06T13:48:18;23.05;;;15.05;;
22007;SDS011;11168;56.976;24.168;2023-04-06T13:50:46;23.75;;;16.05;;
22007;SDS011;11168;56.976;24.168;2023-04-06T13:53:13;26.15;;;15.88;;
22007;SDS011;11168;56.976;24.168;2023-04-06T13:55:41;23.75;;;15.93;;
22007;SDS011;11168;56.976;24.168;2023-04-06T13:58:08;20.90;;;15.85;;
22007;SDS011;11168;56.976;24.168;2023-04-06T14:00:36;23.42;;;16.05;;
22007;SDS011;11168;56.976;24.168;2023-04-06T14:03:05;26.20;;;16.58;;
22007;SDS011;11168;56.976;24.168;2023-04-06T14:05:33;24.70;;;15.75;;
22007;SDS011;11168;56.976;24.168;2023-04-06T14:08:01;23.20;;;15.95;;
22007;SDS011;11168;56.976;24.168;2023-04-06T14:10:28;25.65;;;16.98;;
22007;SDS011;11168;56.976;24.168;2023-04-06T14:12:56;26.15;;;16.27;;
22007;SDS011;11168;56.976;24.168;2023-04-06T14:15:25;25.90;;;16.88;;
22007;SDS011;11168;56.976;24.168;2023-04-06T14:17:52;26.63;;;15.57;;
22007;SDS011;11168;56.976;24.168;2023-04-06T14:20:21;26.40;;;17.38;;
22007;SDS011;11168;56.976;24.168;2023-04-06T14:22:48;26.33;;;16.83;;
22007;SDS011;11168;56.976;24.168;2023-04-06T14:25:17;21.75;;;16.00;;
22007;SDS011;11168;56.976;24.168;2023-04-06T14:27:45;26.65;;;16.40;;
22007;SDS011;11168;56.976;24.168;2023-04-06T14:30:12;24.98;;;16.73;;
22007;SDS011;11168;56.976;24.168;2023-04-06T14:32:40;23.17;;;16.63;;
22007;SDS011;11168;56.976;24.168;2023-04-06T14:35:08;24.30;;;16.52;;
22007;SDS011;11168;56.976;24.168;2023-04-06T14:37:35;28.55;;;17.75;;
22007;SDS011;11168;56.976;24.168;2023-04-06T14:40:03;30.13;;;16.90;;
22007;SDS011;11168;56.976;24.168;2023-04-06T14:42:30;26.38;;;16.23;;
22007;SDS011;11168;56.976;24.168;2023-04-06T14:44:58;22.65;;;14.95;;
22007;SDS011;11168;56.976;24.168;2023-04-06T14:47:25;23.25;;;14.23;;